createdAt,value
2023-02-02T00:03:46.859Z,99499.84
2023-02-02T00:08:54.084Z,99493.40
2023-02-02T00:14:01.973Z,99497.14
2023-02-02T00:19:11.064Z,99493.91
2023-02-02T00:24:20.133Z,99490.36
2023-02-02T00:29:29.032Z,99497.15
2023-02-02T00:34:36.215Z,99504.93
2023-02-02T00:39:45.667Z,99503.08
2023-02-02T00:45:10.978Z,99510.16
2023-02-02T00:50:20.450Z,99507.12
2023-02-02T00:55:30.015Z,99505.40
2023-02-02T01:00:41.915Z,99507.92
2023-02-02T01:05:53.376Z,99504.67
2023-02-02T01:11:03.742Z,99503.82
2023-02-02T01:16:12.610Z,99505.83
2023-02-02T01:21:23.150Z,99511.41
2023-02-02T01:26:31.155Z,99518.30
2023-02-02T01:31:55.073Z,99514.39
2023-02-02T01:37:05.727Z,99516.76
2023-02-02T01:42:21.607Z,99511.66
2023-02-02T01:47:33.553Z,99513.17
2023-02-02T01:52:46.584Z,99505.86
2023-02-02T01:57:57.219Z,99501.77
2023-02-02T02:03:11.691Z,99501.40
2023-02-02T02:08:26.312Z,99502.23
2023-02-02T02:13:59.943Z,99498.48
2023-02-02T02:19:33.199Z,99495.40
2023-02-02T02:25:35.577Z,99488.94
2023-02-02T02:31:08.687Z,99481.49
2023-02-02T02:36:34.510Z,99481.98
2023-02-02T02:42:09.457Z,99476.35
2023-02-02T02:47:25.989Z,99474.95
2023-02-02T02:52:43.915Z,99468.30
2023-02-02T02:58:14.331Z,99465.21
2023-02-02T03:03:32.494Z,99465.89
2023-02-02T03:08:46.573Z,99460.60
2023-02-02T03:13:56.474Z,99456.99
2023-02-02T03:19:05.231Z,99453.54
2023-02-02T03:24:15.233Z,99438.41
2023-02-02T03:29:25.197Z,99425.82
2023-02-02T03:34:50.569Z,99411.03
2023-02-02T03:40:16.568Z,99403.36
2023-02-02T03:45:32.591Z,99401.98
2023-02-02T03:50:53.500Z,99392.67
2023-02-02T03:56:02.527Z,99399.96
2023-02-02T04:01:23.209Z,99395.66
2023-02-02T04:06:32.581Z,99391.41
2023-02-02T04:11:45.044Z,99394.99
2023-02-02T04:16:54.965Z,99397.16
2023-02-02T04:22:05.757Z,99384.23
2023-02-02T04:27:17.275Z,99383.89
2023-02-02T04:32:24.396Z,99385.05
2023-02-02T04:37:33.188Z,99386.16
2023-02-02T04:42:40.215Z,99396.94
2023-02-02T04:47:47.128Z,99390.64
2023-02-02T04:52:54.243Z,99387.05
2023-02-02T04:58:01.779Z,99381.83
2023-02-02T05:03:08.973Z,99382.14
2023-02-02T05:08:15.953Z,99372.22
2023-02-02T05:13:22.871Z,99376.39
2023-02-02T05:18:31.807Z,99382.62
2023-02-02T05:23:38.897Z,99387.96
2023-02-02T05:28:45.988Z,99382.44
2023-02-02T05:33:52.893Z,99384.77
2023-02-02T05:39:00.533Z,99385.92
2023-02-02T05:44:07.775Z,99402.27
2023-02-02T05:49:16.193Z,99403.34
2023-02-02T05:54:23.312Z,99410.74
2023-02-02T05:59:30.970Z,99403.60
2023-02-02T06:04:37.988Z,99413.95
2023-02-02T06:09:44.908Z,99425.45
2023-02-02T06:14:51.876Z,99434.71
2023-02-02T06:19:58.725Z,99436.95
2023-02-02T06:25:08.032Z,99448.92
2023-02-02T06:30:20.185Z,99458.61
2023-02-02T06:35:33.037Z,99462.70
2023-02-02T06:40:40.223Z,99451.20
2023-02-02T06:45:47.473Z,99466.14
2023-02-02T06:50:54.980Z,99472.23
2023-02-02T06:56:03.372Z,99480.48
2023-02-02T07:01:13.641Z,99482.80
2023-02-02T07:06:23.118Z,99485.98
2023-02-02T07:11:30.306Z,99508.79
2023-02-02T07:16:37.630Z,99507.13
2023-02-02T07:21:44.589Z,99512.52
2023-02-02T07:26:51.521Z,99524.05
2023-02-02T07:31:58.537Z,99523.36
2023-02-02T07:37:05.390Z,99532.84
2023-02-02T07:42:13.890Z,99540.59
2023-02-02T07:47:22.036Z,99546.17
2023-02-02T07:52:29.957Z,99556.48
2023-02-02T07:57:36.797Z,99568.88
2023-02-02T08:02:43.745Z,99568.52
2023-02-02T08:07:51.133Z,99580.67
2023-02-02T08:12:58.411Z,99599.46
2023-02-02T08:18:05.349Z,99612.05
2023-02-02T08:23:15.996Z,99630.42
2023-02-02T08:28:22.869Z,99641.45
2023-02-02T08:33:29.839Z,99658.79
2023-02-02T08:38:36.730Z,99658.88
2023-02-02T08:43:44.408Z,99669.25
2023-02-02T08:48:51.669Z,99680.63
2023-02-02T08:53:58.588Z,99676.16
2023-02-02T08:59:06.096Z,99689.92
2023-02-02T09:04:17.084Z,99710.27
2023-02-02T09:09:24.719Z,99716.44
2023-02-02T09:14:31.978Z,99739.91
2023-02-02T09:19:38.985Z,99731.16
2023-02-02T09:24:46.065Z,99750.85
2023-02-02T09:29:53.857Z,99755.42
2023-02-02T09:35:01.236Z,99765.11
2023-02-02T09:40:14.827Z,99774.06
2023-02-02T09:45:34.232Z,99789.50
2023-02-02T09:50:48.821Z,99797.79
2023-02-02T09:56:00.238Z,99796.39
2023-02-02T10:01:13.784Z,99790.64
2023-02-02T10:06:30.666Z,99792.18
2023-02-02T10:11:43.011Z,99803.86
2023-02-02T10:16:55.409Z,99809.39
2023-02-02T10:22:08.708Z,99810.09
2023-02-02T10:27:18.209Z,99809.94
2023-02-02T10:32:29.107Z,99821.58
2023-02-02T10:37:42.510Z,99825.64
2023-02-02T10:43:21.526Z,99813.45
2023-02-02T10:48:35.850Z,99825.58
2023-02-02T10:53:44.607Z,99827.95
2023-02-02T10:58:58.838Z,99848.50
2023-02-02T11:04:23.579Z,99855.17
2023-02-02T11:09:36.310Z,99856.36
2023-02-02T11:14:49.111Z,99858.54
2023-02-02T11:19:56.936Z,99862.67
2023-02-02T11:25:28.156Z,99864.89
2023-02-02T11:30:41.666Z,99888.05
2023-02-02T11:35:58.025Z,99880.69
2023-02-02T11:41:11.419Z,99878.90
2023-02-02T11:46:24.724Z,99896.27
2023-02-02T11:51:33.679Z,99901.14
2023-02-02T11:56:41.368Z,99918.03
2023-02-02T12:01:48.523Z,99916.73
2023-02-02T12:06:55.523Z,99928.64
2023-02-02T12:12:09.080Z,99928.51
2023-02-02T12:17:30.744Z,99942.08
2023-02-02T12:22:51.285Z,99942.77
2023-02-02T12:28:03.452Z,99960.92
2023-02-02T12:33:33.570Z,99965.64
2023-02-02T12:38:57.869Z,99964.91
2023-02-02T12:44:14.083Z,99972.92
2023-02-02T12:49:37.908Z,99981.80
2023-02-02T12:54:58.164Z,99997.67
2023-02-02T13:00:27.051Z,100004.38
2023-02-02T13:11:32.848Z,100019.36
2023-02-02T13:16:42.823Z,100022.17
2023-02-02T13:21:51.870Z,100040.45
2023-02-02T13:27:02.024Z,100056.83
2023-02-02T13:32:17.985Z,100060.55
2023-02-02T13:37:37.773Z,100077.16
2023-02-02T13:42:51.155Z,100083.42
2023-02-02T13:48:06.025Z,100101.19
2023-02-02T13:53:48.416Z,100105.83
2023-02-02T13:59:10.465Z,100114.75
2023-02-02T14:04:28.464Z,100117.14
2023-02-02T14:09:38.640Z,100117.53
2023-02-02T14:14:48.711Z,100120.88
2023-02-02T14:19:57.813Z,100119.57
2023-02-02T14:25:04.876Z,100140.48
2023-02-02T14:30:25.994Z,100144.89
2023-02-02T14:36:06.496Z,100164.21
2023-02-02T14:41:42.324Z,100159.09
2023-02-02T14:46:49.504Z,100175.77
2023-02-02T14:52:05.402Z,100182.19
2023-02-02T14:57:27.516Z,100194.70
2023-02-02T15:02:37.299Z,100204.65
2023-02-02T15:08:07.047Z,100216.49
2023-02-02T15:13:19.156Z,100221.54
2023-02-02T15:18:27.674Z,100232.86
2023-02-02T15:23:39.742Z,100244.71
2023-02-02T15:28:53.325Z,100255.70
2023-02-02T15:34:04.480Z,100267.52
2023-02-02T15:39:23.380Z,100279.16
2023-02-02T15:44:32.048Z,100296.04
2023-02-02T15:49:39.846Z,100312.32
2023-02-02T15:54:58.356Z,100318.27
2023-02-02T16:00:27.394Z,100342.80
2023-02-02T16:05:47.649Z,100376.30
2023-02-02T16:11:05.099Z,100391.14
2023-02-02T16:16:25.139Z,100411.15
2023-02-02T16:21:34.073Z,100426.43
2023-02-02T16:26:41.100Z,100437.51
2023-02-02T16:31:50.482Z,100456.38
2023-02-02T16:37:17.536Z,100468.39
2023-02-02T16:42:33.751Z,100480.89
2023-02-02T16:47:47.271Z,100492.60
2023-02-02T16:53:03.155Z,100502.23
2023-02-02T16:58:20.390Z,100510.89
2023-02-02T17:03:40.059Z,100537.95
2023-02-02T17:08:50.434Z,100540.80
2023-02-02T17:14:20.097Z,100552.61
2023-02-02T17:19:36.758Z,100555.23
2023-02-02T17:24:52.846Z,100570.90
2023-02-02T17:30:03.369Z,100583.29
2023-02-02T17:35:19.961Z,100597.21
2023-02-02T17:40:30.133Z,100612.31
2023-02-02T17:45:43.191Z,100635.80
2023-02-02T17:50:59.097Z,100648.47
2023-02-02T17:56:12.625Z,100659.60
2023-02-02T18:01:23.533Z,100664.17
2023-02-02T18:06:33.908Z,100671.55
2023-02-02T18:11:44.208Z,100679.48
2023-02-02T18:16:52.482Z,100689.95
2023-02-02T18:22:02.154Z,100708.38
2023-02-02T18:27:13.985Z,100711.29
2023-02-02T18:32:23.579Z,100720.42
2023-02-02T18:37:33.763Z,100725.48
2023-02-02T18:42:49.751Z,100733.06
2023-02-02T18:47:58.590Z,100755.53
2023-02-02T18:53:09.965Z,100769.98
2023-02-02T18:58:19.883Z,100786.60
2023-02-02T19:03:27.871Z,100793.05
2023-02-02T19:08:36.488Z,100800.67
2023-02-02T19:13:44.983Z,100811.24
2023-02-02T19:18:55.343Z,100815.17
2023-02-02T19:24:10.313Z,100814.16
2023-02-02T19:29:23.496Z,100818.89
2023-02-02T19:34:30.930Z,100829.33
2023-02-02T19:39:38.971Z,100836.89
2023-02-02T19:44:48.363Z,100846.80
2023-02-02T19:49:58.099Z,100850.46
2023-02-02T19:55:25.543Z,100860.76
2023-02-02T20:00:38.970Z,100870.55
2023-02-02T20:05:49.296Z,100874.25
2023-02-02T20:11:01.011Z,100877.23
2023-02-02T20:16:40.150Z,100891.11
2023-02-02T20:22:02.811Z,100909.83
2023-02-02T20:27:27.572Z,100926.17
2023-02-02T20:32:52.004Z,100940.52
2023-02-02T20:38:04.285Z,100938.66
2023-02-02T20:43:13.391Z,100937.11
2023-02-02T20:48:28.417Z,100948.39
2023-02-02T20:53:47.261Z,100961.58
2023-02-02T20:58:57.992Z,100966.18
2023-02-02T21:04:10.488Z,100972.59
2023-02-02T21:09:18.059Z,100977.09
2023-02-02T21:14:25.514Z,100978.79
2023-02-02T21:19:42.477Z,100977.21
2023-02-02T21:24:53.679Z,100974.61
2023-02-02T21:30:02.116Z,100974.20
2023-02-02T21:35:14.213Z,100970.14
2023-02-02T21:40:30.065Z,100970.88
2023-02-02T21:45:42.003Z,100968.16
2023-02-02T21:50:53.333Z,100966.70
2023-02-02T21:56:22.264Z,100961.69
2023-02-02T22:01:38.541Z,100970.82
2023-02-02T22:06:54.190Z,100968.67
2023-02-02T22:12:15.996Z,100969.61
2023-02-02T22:17:32.734Z,100972.58
2023-02-02T22:23:02.649Z,100976.34
2023-02-02T22:28:43.854Z,100981.09
2023-02-02T22:33:57.166Z,100982.39
2023-02-02T22:39:07.775Z,100982.54
2023-02-02T22:44:20.596Z,100985.20
2023-02-02T22:49:41.201Z,100989.36
2023-02-02T22:55:15.323Z,100996.38
2023-02-02T23:00:57.883Z,100998.69
2023-02-02T23:20:30.156Z,101019.66
2023-02-02T23:25:42.817Z,101025.30
2023-02-02T23:31:53.710Z,101033.02
2023-02-02T23:37:04.706Z,101031.23
2023-02-02T23:42:15.969Z,101027.45
2023-02-02T23:47:34.551Z,101024.97
2023-02-02T23:52:47.655Z,101023.30
2023-02-02T23:57:57.443Z,101018.36
